Time;durP1;ratioP1;P1;durP2;ratioP2;P2;SDS_P1;SDS_P2;PMS_P1;PMS_P2;Temp;Humidity;BMP_temperature;BMP_pressure;BME280_temperature;BME280_humidity;BME280_pressure;Samples;Min_cycle;Max_cycle;Signal;HPM_P1;HPM_P2
2022/07/30 00:00:04;;;;;;;10.43;5.55;;;;;;;;;;4940275;28;20049;-73
2022/07/30 00:02:29;;;;;;;8.75;4.93;;;;;;;;;;4931017;28;20129;-72
2022/07/30 00:04:55;;;;;;;11.80;5.22;;;;;;;;;;4931993;28;20912;-72
2022/07/30 00:07:20;;;;;;;14.95;5.63;;;;;;;;;;4931732;28;20070;-72
2022/07/30 00:09:46;;;;;;;9.80;5.30;;;;;;;;;;4930767;28;20065;-72
2022/07/30 00:12:11;;;;;;;12.18;4.95;;;;;;;;;;4933164;28;20038;-73
2022/07/30 00:14:36;;;;;;;9.25;4.80;;;;;;;;;;4953257;28;20065;-73
2022/07/30 00:17:04;;;;;;;10.85;5.30;;;;;;;;;;4933065;28;20030;-73
2022/07/30 00:19:29;;;;;;;9.30;4.53;;;;;;;;;;4931753;28;20656;-72
2022/07/30 00:21:57;;;;;;;10.00;4.78;;;;;;;;;;4932667;28;20027;-74
2022/07/30 00:24:22;;;;;;;12.18;4.60;;;;;;;;;;4931881;28;20046;-72
2022/07/30 00:26:48;;;;;;;10.10;4.60;;;;;;;;;;4932462;28;20059;-73
2022/07/30 00:29:13;;;;;;;8.95;4.70;;;;;;;;;;4931606;28;20055;-73
2022/07/30 00:31:41;;;;;;;10.98;4.78;;;;;;;;;;4933801;28;20050;-72
2022/07/30 00:34:07;;;;;;;9.82;4.50;;;;;;;;;;4932068;28;21069;-72
2022/07/30 00:36:37;;;;;;;11.82;4.22;;;;;;;;;;4932225;28;20042;-71
2022/07/30 00:39:03;;;;;;;9.57;4.30;;;;;;;;;;4929182;28;20035;-73
2022/07/30 00:41:30;;;;;;;8.30;3.88;;;;;;;;;;4928370;28;21218;-73
2022/07/30 00:43:55;;;;;;;11.68;3.80;;;;;;;;;;4930092;28;21294;-73
2022/07/30 00:46:21;;;;;;;15.13;4.47;;;;;;;;;;4929710;28;20039;-72
2022/07/30 00:48:49;;;;;;;10.50;4.80;;;;;;;;;;4929238;28;20039;-72
2022/07/30 00:51:14;;;;;;;9.07;4.10;;;;;;;;;;4934970;28;20071;-73
2022/07/30 00:53:39;;;;;;;11.32;4.47;;;;;;;;;;4928913;28;20038;-72
2022/07/30 00:56:05;;;;;;;11.63;4.45;;;;;;;;;;4930834;28;20049;-73
2022/07/30 00:58:33;;;;;;;16.15;4.78;;;;;;;;;;4929214;28;20035;-72
2022/07/30 01:00:58;;;;;;;10.48;4.25;;;;;;;;;;4930260;28;20039;-74
2022/07/30 01:03:26;;;;;;;8.45;4.20;;;;;;;;;;4928968;28;20043;-73
2022/07/30 01:05:52;;;;;;;10.15;4.15;;;;;;;;;;4930454;28;20958;-73
2022/07/30 01:08:17;;;;;;;11.75;4.18;;;;;;;;;;4938078;28;20049;-72
2022/07/30 01:10:42;;;;;;;11.50;4.38;;;;;;;;;;4933966;28;20038;-72
2022/07/30 01:13:10;;;;;;;9.52;4.30;;;;;;;;;;4931863;28;20748;-72
2022/07/30 01:15:36;;;;;;;10.13;4.03;;;;;;;;;;4933252;28;20531;-73
2022/07/30 01:18:02;;;;;;;11.52;4.10;;;;;;;;;;4932716;28;20066;-73
2022/07/30 01:20:34;;;;;;;10.25;4.60;;;;;;;;;;4932903;28;20779;-70
2022/07/30 01:23:00;;;;;;;;;;;;;;;;;;4933657;28;20802;-72
2022/07/30 01:25:31;;;;;;;10.25;4.28;;;;;;;;;;4933840;28;19929;-73
2022/07/30 01:28:01;;;;;;;11.57;4.03;;;;;;;;;;4932823;28;20038;-73
2022/07/30 01:30:28;;;;;;;10.10;3.90;;;;;;;;;;4933847;28;20050;-73
2022/07/30 01:32:55;;;;;;;9.15;4.20;;;;;;;;;;4932889;28;23395;-73
2022/07/30 01:35:24;;;;;;;10.32;4.63;;;;;;;;;;4932578;28;20128;-74
2022/07/30 01:37:50;;;;;;;11.50;4.07;;;;;;;;;;4932521;28;20720;-70
2022/07/30 01:40:18;;;;;;;13.68;4.40;;;;;;;;;;4933152;28;20031;-73
2022/07/30 01:42:44;;;;;;;10.60;3.97;;;;;;;;;;4932719;28;20120;-73
2022/07/30 01:45:10;;;;;;;10.65;4.00;;;;;;;;;;4933213;28;21190;-73
2022/07/30 01:47:37;;;;;;;10.15;3.75;;;;;;;;;;4933437;28;20061;-72
2022/07/30 01:50:05;;;;;;;11.38;3.75;;;;;;;;;;4933024;28;20051;-73
2022/07/30 01:52:31;;;;;;;6.70;4.03;;;;;;;;;;4932034;28;20195;-72
2022/07/30 01:55:00;;;;;;;10.02;3.88;;;;;;;;;;4933152;28;20272;-72
2022/07/30 01:57:25;;;;;;;11.70;3.65;;;;;;;;;;4931286;28;20352;-72
2022/07/30 01:59:54;;;;;;;6.47;3.40;;;;;;;;;;4930831;28;20046;-72
2022/07/30 02:02:22;;;;;;;9.52;3.65;;;;;;;;;;4931186;28;20053;-73
2022/07/30 02:04:47;;;;;;;10.88;3.72;;;;;;;;;;4931569;28;20561;-73
2022/07/30 02:07:18;;;;;;;11.43;4.15;;;;;;;;;;4930194;28;20129;-73
2022/07/30 02:09:52;;;;;;;12.80;4.43;;;;;;;;;;4930535;28;20093;-72
2022/07/30 02:12:28;;;;;;;9.70;3.80;;;;;;;;;;4932270;28;20038;-73
2022/07/30 02:15:02;;;;;;;9.07;3.75;;;;;;;;;;4930691;28;20414;-73
2022/07/30 02:17:33;;;;;;;9.27;3.88;;;;;;;;;;4930063;28;20147;-73
2022/07/30 02:19:59;;;;;;;12.18;3.70;;;;;;;;;;4930258;28;20422;-72
2022/07/30 02:22:27;;;;;;;13.45;3.70;;;;;;;;;;4929574;28;20042;-72
2022/07/30 02:24:54;;;;;;;9.63;3.60;;;;;;;;;;4930656;28;20105;-72
2022/07/30 02:27:25;;;;;;;11.73;3.72;;;;;;;;;;4930353;28;20049;-71
2022/07/30 02:29:54;;;;;;;9.73;4.07;;;;;;;;;;4929470;28;20027;-72
2022/07/30 02:32:21;;;;;;;10.07;3.25;;;;;;;;;;4930851;28;20142;-72
2022/07/30 02:34:48;;;;;;;8.05;3.35;;;;;;;;;;4930166;28;20036;-72
2022/07/30 02:37:14;;;;;;;9.77;3.25;;;;;;;;;;4930678;28;20038;-71
2022/07/30 02:39:41;;;;;;;10.70;3.78;;;;;;;;;;4930443;28;20589;-72
2022/07/30 02:42:08;;;;;;;11.82;3.28;;;;;;;;;;4929027;28;20048;-72
2022/07/30 02:44:34;;;;;;;11.73;3.60;;;;;;;;;;4931368;28;20137;-72
2022/07/30 02:47:01;;;;;;;12.55;3.35;;;;;;;;;;4933086;28;20443;-73
2022/07/30 02:49:30;;;;;;;11.27;3.30;;;;;;;;;;4930104;28;20076;-73
2022/07/30 02:51:56;;;;;;;16.73;3.65;;;;;;;;;;4929678;28;20035;-72
2022/07/30 02:54:25;;;;;;;7.53;3.38;;;;;;;;;;4932633;28;20133;-72
2022/07/30 02:56:51;;;;;;;8.30;3.30;;;;;;;;;;4930383;28;20615;-73
2022/07/30 02:59:20;;;;;;;8.80;3.35;;;;;;;;;;4930371;28;20500;-73
2022/07/30 03:01:47;;;;;;;7.43;3.05;;;;;;;;;;4930117;28;20046;-73
2022/07/30 03:04:12;;;;;;;9.90;3.50;;;;;;;;;;4926614;28;20038;-73
2022/07/30 03:06:39;;;;;;;8.85;3.55;;;;;;;;;;4929836;28;20034;-74
2022/07/30 03:09:04;;;;;;;10.40;3.30;;;;;;;;;;4928900;28;20038;-73
2022/07/30 03:11:30;;;;;;;10.27;3.67;;;;;;;;;;4929777;28;20106;-73
2022/07/30 03:13:55;;;;;;;7.95;2.83;;;;;;;;;;4914840;28;20034;-73
2022/07/30 03:16:21;;;;;;;9.27;3.30;;;;;;;;;;4930026;28;20039;-73
2022/07/30 03:18:47;;;;;;;6.32;2.95;;;;;;;;;;4915533;28;20283;-72
2022/07/30 03:21:14;;;;;;;9.52;3.35;;;;;;;;;;4929276;28;20043;-73
2022/07/30 03:23:41;;;;;;;5.68;3.17;;;;;;;;;;4929086;28;20595;-73
2022/07/30 03:26:07;;;;;;;7.32;2.95;;;;;;;;;;4928985;28;20042;-72
2022/07/30 03:28:37;;;;;;;11.68;3.58;;;;;;;;;;4929610;28;20132;-73
2022/07/30 03:31:06;;;;;;;8.70;3.20;;;;;;;;;;4943529;28;20595;-72
2022/07/30 03:33:34;;;;;;;9.82;3.15;;;;;;;;;;4933542;28;20347;-72
2022/07/30 03:36:00;;;;;;;6.47;3.10;;;;;;;;;;4930000;28;20035;-73
2022/07/30 03:38:26;;;;;;;13.63;3.47;;;;;;;;;;4929543;28;20039;-71
2022/07/30 03:40:53;;;;;;;10.70;3.40;;;;;;;;;;4929696;28;20645;-71
2022/07/30 03:43:20;;;;;;;8.52;3.30;;;;;;;;;;4928787;28;20050;-72
2022/07/30 03:45:48;;;;;;;7.03;3.42;;;;;;;;;;4929120;28;20043;-73
2022/07/30 03:48:13;;;;;;;10.25;3.15;;;;;;;;;;4928325;28;20626;-72
2022/07/30 03:50:40;;;;;;;6.53;3.10;;;;;;;;;;4929361;28;20046;-72
2022/07/30 03:53:07;;;;;;;10.10;3.42;;;;;;;;;;4928560;28;20039;-72
2022/07/30 03:55:33;;;;;;;6.82;3.15;;;;;;;;;;4933663;28;20075;-73
2022/07/30 03:58:00;;;;;;;11.55;3.05;;;;;;;;;;4929513;28;20035;-73
2022/07/30 04:00:26;;;;;;;8.30;2.90;;;;;;;;;;4929996;28;20038;-71
2022/07/30 04:02:52;;;;;;;7.70;2.90;;;;;;;;;;4932413;28;20804;-72
2022/07/30 04:05:17;;;;;;;7.82;3.00;;;;;;;;;;4932802;28;20870;-73
2022/07/30 04:07:43;;;;;;;11.90;3.13;;;;;;;;;;4929047;28;20572;-73
2022/07/30 04:10:08;;;;;;;7.50;3.10;;;;;;;;;;4929282;28;20058;-74
2022/07/30 04:12:34;;;;;;;10.05;3.30;;;;;;;;;;4928988;28;20033;-71
2022/07/30 04:15:00;;;;;;;8.52;2.80;;;;;;;;;;4932695;28;20043;-73
2022/07/30 04:17:28;;;;;;;6.65;2.78;;;;;;;;;;4932990;28;20069;-73
2022/07/30 04:19:59;;;;;;;7.75;2.85;;;;;;;;;;4931594;28;20089;-72
2022/07/30 04:22:26;;;;;;;7.88;3.05;;;;;;;;;;4929493;28;20062;-72
2022/07/30 04:24:55;;;;;;;10.32;3.10;;;;;;;;;;4931989;28;20050;-73
2022/07/30 04:27:21;;;;;;;7.90;2.70;;;;;;;;;;4929523;28;20070;-75
2022/07/30 04:29:46;;;;;;;6.78;2.65;;;;;;;;;;4932619;28;20038;-74
2022/07/30 04:32:12;;;;;;;8.13;2.60;;;;;;;;;;4930466;28;20125;-73
2022/07/30 04:34:47;;;;;;;7.70;2.60;;;;;;;;;;4931066;28;20034;-74
2022/07/30 04:37:14;;;;;;;5.60;2.28;;;;;;;;;;4932358;28;20072;-73
2022/07/30 04:39:39;;;;;;;6.53;2.03;;;;;;;;;;4931601;28;20038;-73
2022/07/30 04:42:05;;;;;;;6.20;2.10;;;;;;;;;;4934155;28;20907;-75
2022/07/30 04:44:30;;;;;;;8.07;2.38;;;;;;;;;;4939095;28;20058;-74
2022/07/30 04:46:55;;;;;;;5.53;2.38;;;;;;;;;;4935522;28;20035;-75
2022/07/30 04:49:23;;;;;;;6.20;2.13;;;;;;;;;;4943159;28;20050;-75
2022/07/30 04:51:49;;;;;;;8.93;2.38;;;;;;;;;;4934928;28;20033;-74
2022/07/30 04:54:16;;;;;;;6.80;2.10;;;;;;;;;;4934766;28;20173;-74
2022/07/30 04:56:44;;;;;;;4.63;2.22;;;;;;;;;;4948824;28;20146;-73
2022/07/30 04:59:09;;;;;;;7.68;2.28;;;;;;;;;;4949122;28;20041;-73
2022/07/30 05:01:38;;;;;;;5.78;2.47;;;;;;;;;;4934331;28;20137;-73
2022/07/30 05:04:04;;;;;;;6.78;2.35;;;;;;;;;;4933136;28;20058;-74
2022/07/30 05:06:32;;;;;;;5.75;2.13;;;;;;;;;;4937948;28;20737;-73
2022/07/30 05:08:57;;;;;;;6.32;1.90;;;;;;;;;;4940129;28;20059;-73
2022/07/30 05:11:23;;;;;;;8.30;2.35;;;;;;;;;;4935658;28;20504;-74
2022/07/30 05:13:48;;;;;;;9.05;2.00;;;;;;;;;;4933292;28;20035;-73
2022/07/30 05:16:14;;;;;;;6.57;2.00;;;;;;;;;;4935690;28;20035;-73
2022/07/30 05:18:42;;;;;;;4.65;2.15;;;;;;;;;;4932496;28;20588;-73
2022/07/30 05:21:08;;;;;;;7.82;1.98;;;;;;;;;;4932477;28;20097;-74
2022/07/30 05:23:33;;;;;;;7.50;2.25;;;;;;;;;;4931821;28;20077;-74
2022/07/30 05:25:59;;;;;;;4.60;1.80;;;;;;;;;;4930070;28;20169;-73
2022/07/30 05:28:25;;;;;;;4.60;1.77;;;;;;;;;;4932673;28;20128;-74
2022/07/30 05:30:52;;;;;;;3.47;1.80;;;;;;;;;;4934162;28;20042;-74
2022/07/30 05:33:20;;;;;;;7.72;2.00;;;;;;;;;;4931960;28;20066;-73
2022/07/30 05:35:45;;;;;;;7.72;2.10;;;;;;;;;;4939335;28;20144;-74
2022/07/30 05:38:10;;;;;;;6.55;1.95;;;;;;;;;;4931517;28;20998;-74
2022/07/30 05:40:36;;;;;;;8.05;1.92;;;;;;;;;;4933477;28;20133;-74
2022/07/30 05:43:01;;;;;;;5.93;2.00;;;;;;;;;;4932115;28;20070;-75
2022/07/30 05:45:28;;;;;;;4.47;1.80;;;;;;;;;;4932469;28;20035;-72
2022/07/30 05:47:54;;;;;;;3.35;1.80;;;;;;;;;;4932373;28;20035;-73
2022/07/30 05:50:19;;;;;;;4.95;1.88;;;;;;;;;;4934048;28;20062;-74
2022/07/30 05:52:45;;;;;;;5.82;1.73;;;;;;;;;;4935154;28;20105;-74
2022/07/30 05:55:12;;;;;;;3.50;1.70;;;;;;;;;;4931154;28;20523;-74
2022/07/30 05:57:37;;;;;;;4.93;1.70;;;;;;;;;;4935081;28;20982;-76
2022/07/30 06:00:06;;;;;;;6.43;1.70;;;;;;;;;;4933771;28;20043;-75
2022/07/30 06:02:31;;;;;;;4.15;1.80;;;;;;;;;;4936872;28;20066;-78
2022/07/30 06:04:58;;;;;;;7.18;1.60;;;;;;;;;;4932357;28;20159;-76
2022/07/30 06:07:23;;;;;;;5.25;1.73;;;;;;;;;;4933022;28;20035;-73
2022/07/30 06:09:49;;;;;;;3.47;1.52;;;;;;;;;;4934961;28;20039;-74
2022/07/30 06:12:16;;;;;;;4.53;1.50;;;;;;;;;;4931646;28;20121;-71
2022/07/30 06:14:44;;;;;;;2.10;1.45;;;;;;;;;;4941278;28;20869;-73
2022/07/30 06:17:12;;;;;;;7.25;1.70;;;;;;;;;;4931433;28;20054;-72
2022/07/30 06:19:37;;;;;;;4.60;1.63;;;;;;;;;;4936104;28;20601;-74
2022/07/30 06:22:05;;;;;;;2.90;1.40;;;;;;;;;;4930334;28;20038;-74
2022/07/30 06:24:30;;;;;;;3.28;1.60;;;;;;;;;;4934034;28;20885;-73
2022/07/30 06:26:58;;;;;;;7.57;1.70;;;;;;;;;;4932266;28;20047;-72
2022/07/30 06:29:25;;;;;;;5.10;1.48;;;;;;;;;;4931512;28;20034;-73
2022/07/30 06:31:50;;;;;;;4.75;1.60;;;;;;;;;;4933226;28;20035;-74
2022/07/30 06:34:16;;;;;;;7.95;1.60;;;;;;;;;;4931053;28;20078;-72
2022/07/30 06:36:41;;;;;;;3.85;1.38;;;;;;;;;;4929553;28;20043;-73
2022/07/30 06:39:06;;;;;;;4.63;1.35;;;;;;;;;;4934074;28;20031;-74
2022/07/30 06:41:32;;;;;;;4.00;1.60;;;;;;;;;;4930719;28;20142;-74
2022/07/30 06:43:57;;;;;;;3.55;1.20;;;;;;;;;;4931259;28;20051;-73
2022/07/30 06:46:23;;;;;;;4.25;1.30;;;;;;;;;;4930964;28;20027;-73
2022/07/30 06:48:51;;;;;;;6.75;1.70;;;;;;;;;;4930522;28;20141;-73
2022/07/30 06:51:18;;;;;;;6.30;1.75;;;;;;;;;;4931143;28;20472;-71
2022/07/30 06:53:44;;;;;;;5.03;1.33;;;;;;;;;;4931930;28;20125;-73
2022/07/30 06:56:10;;;;;;;3.60;1.20;;;;;;;;;;4931018;28;20035;-73
2022/07/30 06:58:35;;;;;;;2.60;1.20;;;;;;;;;;4932163;28;20117;-73
2022/07/30 07:01:00;;;;;;;2.88;1.27;;;;;;;;;;4930339;28;20039;-72
2022/07/30 07:03:26;;;;;;;4.22;1.20;;;;;;;;;;4929007;28;20071;-74
2022/07/30 07:05:51;;;;;;;3.78;1.30;;;;;;;;;;4930138;28;20610;-73
2022/07/30 07:08:17;;;;;;;2.92;1.23;;;;;;;;;;4919511;28;20039;-73
2022/07/30 07:10:42;;;;;;;4.15;1.20;;;;;;;;;;4932787;28;20614;-73
2022/07/30 07:13:07;;;;;;;3.30;1.00;;;;;;;;;;4932910;28;20050;-73
2022/07/30 07:15:37;;;;;;;3.97;0.95;;;;;;;;;;4931437;28;20632;-72
2022/07/30 07:18:03;;;;;;;5.65;1.23;;;;;;;;;;4931513;28;20046;-73
2022/07/30 07:20:29;;;;;;;1.85;1.10;;;;;;;;;;4930544;28;20038;-72
2022/07/30 07:22:54;;;;;;;3.13;0.90;;;;;;;;;;4930647;28;20043;-74
2022/07/30 07:25:19;;;;;;;4.75;1.30;;;;;;;;;;4929851;28;20037;-72
2022/07/30 07:27:45;;;;;;;2.58;1.20;;;;;;;;;;4930361;28;20051;-73
2022/07/30 07:30:11;;;;;;;3.88;1.23;;;;;;;;;;4926227;28;20929;-75
2022/07/30 07:32:36;;;;;;;1.85;0.88;;;;;;;;;;4931212;28;20034;-72
2022/07/30 07:35:01;;;;;;;3.47;1.23;;;;;;;;;;4930608;28;20034;-72
2022/07/30 07:37:27;;;;;;;5.07;1.08;;;;;;;;;;4930469;28;20027;-73
2022/07/30 07:39:52;;;;;;;2.55;1.10;;;;;;;;;;4930071;28;20578;-72
2022/07/30 07:42:18;;;;;;;2.97;1.00;;;;;;;;;;4926917;28;20034;-73
2022/07/30 07:44:43;;;;;;;3.28;1.20;;;;;;;;;;4931190;28;20155;-72
2022/07/30 07:47:09;;;;;;;3.17;1.33;;;;;;;;;;4938760;28;20603;-73
2022/07/30 07:49:34;;;;;;;3.42;1.02;;;;;;;;;;4930555;28;20073;-72
2022/07/30 07:52:02;;;;;;;4.07;1.20;;;;;;;;;;4930594;28;20650;-72
2022/07/30 07:54:27;;;;;;;2.88;0.90;;;;;;;;;;4929041;28;20066;-72
2022/07/30 07:56:54;;;;;;;2.47;0.90;;;;;;;;;;4936567;28;20038;-74
2022/07/30 07:59:20;;;;;;;3.70;1.00;;;;;;;;;;4928965;28;20918;-71
2022/07/30 08:01:45;;;;;;;2.50;1.00;;;;;;;;;;4932612;28;20046;-74
2022/07/30 08:04:12;;;;;;;2.38;1.10;;;;;;;;;;4930172;28;20303;-73
2022/07/30 08:06:38;;;;;;;3.65;1.05;;;;;;;;;;4928302;28;20034;-73
2022/07/30 08:09:03;;;;;;;4.45;1.20;;;;;;;;;;4928691;28;20614;-73
2022/07/30 08:11:31;;;;;;;2.80;1.10;;;;;;;;;;4932087;28;20046;-72
2022/07/30 08:13:58;;;;;;;1.95;0.90;;;;;;;;;;4929708;28;20050;-73
2022/07/30 08:16:24;;;;;;;2.17;0.90;;;;;;;;;;4927211;28;20538;-73
2022/07/30 08:18:49;;;;;;;2.15;0.80;;;;;;;;;;4929614;28;20042;-72
2022/07/30 08:21:15;;;;;;;3.03;1.20;;;;;;;;;;4929910;28;20042;-73
2022/07/30 08:23:40;;;;;;;2.92;0.98;;;;;;;;;;4931861;28;20042;-71
2022/07/30 08:26:08;;;;;;;5.07;1.20;;;;;;;;;;4929495;28;20042;-73
2022/07/30 08:28:34;;;;;;;3.13;1.10;;;;;;;;;;4928769;28;20890;-73
2022/07/30 08:30:59;;;;;;;4.05;1.10;;;;;;;;;;4930139;28;20043;-73
2022/07/30 08:33:25;;;;;;;2.72;1.10;;;;;;;;;;4929299;28;20851;-73
2022/07/30 08:35:50;;;;;;;4.78;1.30;;;;;;;;;;4929697;28;20034;-72
2022/07/30 08:38:15;;;;;;;3.78;1.10;;;;;;;;;;4931901;28;20659;-71
2022/07/30 08:40:43;;;;;;;2.90;1.08;;;;;;;;;;4914451;28;20058;-71
2022/07/30 08:43:08;;;;;;;4.07;1.08;;;;;;;;;;4930642;28;20035;-73
2022/07/30 08:45:34;;;;;;;2.55;1.02;;;;;;;;;;4929549;28;20790;-72
2022/07/30 08:48:00;;;;;;;2.75;1.10;;;;;;;;;;4929865;28;20055;-73
2022/07/30 08:50:28;;;;;;;2.75;1.17;;;;;;;;;;4934352;28;20135;-71
2022/07/30 08:52:54;;;;;;;2.60;1.00;;;;;;;;;;4929341;28;20050;-71
2022/07/30 08:55:23;;;;;;;2.25;0.80;;;;;;;;;;4932623;28;20587;-69
2022/07/30 08:57:49;;;;;;;3.30;1.00;;;;;;;;;;4929910;28;20062;-70
2022/07/30 09:00:15;;;;;;;3.83;1.17;;;;;;;;;;4930326;28;20869;-71
2022/07/30 09:02:45;;;;;;;4.90;1.02;;;;;;;;;;4943379;28;20121;-71
2022/07/30 09:05:11;;;;;;;1.55;0.90;;;;;;;;;;4930409;28;20050;-71
2022/07/30 09:07:36;;;;;;;2.97;0.85;;;;;;;;;;4929120;28;20038;-70
2022/07/30 09:10:05;;;;;;;3.50;0.95;;;;;;;;;;4929920;28;20031;-71
2022/07/30 09:12:30;;;;;;;3.97;1.00;;;;;;;;;;4929201;28;20756;-72
2022/07/30 09:15:13;;;;;;;1.77;1.00;;;;;;;;;;4928905;28;20039;-71
2022/07/30 09:17:44;;;;;;;2.42;1.00;;;;;;;;;;4937081;28;20881;-72
2022/07/30 09:20:12;;;;;;;5.25;1.20;;;;;;;;;;4938703;28;20074;-72
2022/07/30 09:22:41;;;;;;;2.40;1.00;;;;;;;;;;4932803;28;20031;-72
2022/07/30 09:25:07;;;;;;;1.92;0.90;;;;;;;;;;4934094;28;20910;-72
2022/07/30 09:27:45;;;;;;;3.50;1.10;;;;;;;;;;4933151;28;20027;-71
2022/07/30 09:30:13;;;;;;;2.85;1.13;;;;;;;;;;4933695;28;20093;-71
2022/07/30 09:32:53;;;;;;;4.78;1.10;;;;;;;;;;4919516;28;20150;-70
2022/07/30 09:35:18;;;;;;;3.65;1.13;;;;;;;;;;4933898;28;20126;-71
2022/07/30 09:37:47;;;;;;;3.92;1.10;;;;;;;;;;4934473;28;20029;-70
2022/07/30 09:40:16;;;;;;;5.38;1.20;;;;;;;;;;4952252;28;22756;-72
2022/07/30 09:42:42;;;;;;;4.07;1.23;;;;;;;;;;4933871;28;20035;-70
2022/07/30 09:45:08;;;;;;;3.30;1.17;;;;;;;;;;4933067;28;20096;-73
2022/07/30 09:47:47;;;;;;;2.72;1.00;;;;;;;;;;4932462;28;20141;-71
2022/07/30 09:50:13;;;;;;;4.18;1.20;;;;;;;;;;4934240;28;20042;-69
2022/07/30 09:52:40;;;;;;;2.50;1.20;;;;;;;;;;4937129;28;20075;-71
2022/07/30 09:55:06;;;;;;;3.00;1.48;;;;;;;;;;4938978;28;20038;-70
2022/07/30 09:57:33;;;;;;;2.85;1.00;;;;;;;;;;4933956;28;20802;-71
2022/07/30 10:00:14;;;;;;;3.42;1.25;;;;;;;;;;4943973;28;20045;-71
2022/07/30 10:02:42;;;;;;;4.07;1.10;;;;;;;;;;4934187;28;21124;-72
2022/07/30 10:05:12;;;;;;;3.13;1.20;;;;;;;;;;4946767;28;20074;-73
2022/07/30 10:07:38;;;;;;;3.88;1.30;;;;;;;;;;4932531;28;20051;-71
2022/07/30 10:10:06;;;;;;;2.88;1.00;;;;;;;;;;4931832;28;20038;-70
2022/07/30 10:12:31;;;;;;;5.05;1.20;;;;;;;;;;4930479;28;20504;-72
2022/07/30 10:15:00;;;;;;;1.90;1.08;;;;;;;;;;4936929;28;20043;-70
2022/07/30 10:17:26;;;;;;;3.90;0.98;;;;;;;;;;4928111;28;20392;-71
2022/07/30 10:19:52;;;;;;;5.57;1.55;;;;;;;;;;4929498;28;20070;-71
2022/07/30 10:22:17;;;;;;;2.47;1.10;;;;;;;;;;4930221;28;20648;-73
2022/07/30 10:24:43;;;;;;;2.50;1.02;;;;;;;;;;4935674;28;20046;-70
2022/07/30 10:27:10;;;;;;;3.47;1.20;;;;;;;;;;4932732;28;20038;-70
2022/07/30 10:29:37;;;;;;;3.95;1.25;;;;;;;;;;4932473;28;20062;-71
2022/07/30 10:32:02;;;;;;;3.47;1.20;;;;;;;;;;4931599;28;20042;-75
2022/07/30 10:34:31;;;;;;;5.07;1.15;;;;;;;;;;4930619;28;20347;-72
2022/07/30 10:36:59;;;;;;;3.13;1.05;;;;;;;;;;4932450;28;20164;-71
2022/07/30 10:39:37;;;;;;;2.67;1.20;;;;;;;;;;4930833;28;20788;-71
2022/07/30 10:42:09;;;;;;;4.57;1.33;;;;;;;;;;4933363;28;20812;-72
2022/07/30 10:44:34;;;;;;;;;;;;;;;;;;4932281;28;20734;-73
2022/07/30 10:47:04;;;;;;;3.55;1.00;;;;;;;;;;4932385;28;19996;-73
2022/07/30 10:49:32;;;;;;;3.22;1.40;;;;;;;;;;4931107;28;20625;-70
2022/07/30 10:51:57;;;;;;;4.32;1.10;;;;;;;;;;4931677;28;20047;-72
2022/07/30 10:54:32;;;;;;;3.05;1.05;;;;;;;;;;4930205;28;20054;-71
2022/07/30 10:57:15;;;;;;;5.53;1.00;;;;;;;;;;4931352;28;20590;-72
2022/07/30 10:59:57;;;;;;;2.58;0.90;;;;;;;;;;4930099;28;20081;-72
2022/07/30 11:02:30;;;;;;;2.13;1.10;;;;;;;;;;4945300;28;20047;-70
2022/07/30 11:05:14;;;;;;;4.72;1.80;;;;;;;;;;4930172;28;20105;-71
2022/07/30 11:07:39;;;;;;;3.92;1.10;;;;;;;;;;4930553;28;20485;-71
2022/07/30 11:10:04;;;;;;;3.83;1.20;;;;;;;;;;4930829;28;20039;-71
2022/07/30 11:12:42;;;;;;;4.00;1.00;;;;;;;;;;4935427;28;20191;-70
2022/07/30 11:15:11;;;;;;;6.13;1.35;;;;;;;;;;4929097;28;20046;-71
2022/07/30 11:17:58;;;;;;;3.67;1.25;;;;;;;;;;4929701;28;20154;-71
2022/07/30 11:20:25;;;;;;;4.60;1.10;;;;;;;;;;4929982;28;20042;-71
2022/07/30 11:22:52;;;;;;;3.38;1.13;;;;;;;;;;4929546;28;20039;-71
2022/07/30 11:25:21;;;;;;;5.13;1.10;;;;;;;;;;4930689;28;20069;-73
2022/07/30 11:27:49;;;;;;;4.78;1.10;;;;;;;;;;4930310;28;20041;-71
2022/07/30 11:30:14;;;;;;;2.95;1.02;;;;;;;;;;4938739;28;20114;-70
2022/07/30 11:32:45;;;;;;;3.95;1.10;;;;;;;;;;4928168;28;20031;-69
2022/07/30 11:35:26;;;;;;;3.33;1.30;;;;;;;;;;4930279;28;20863;-71
2022/07/30 11:37:54;;;;;;;2.70;1.20;;;;;;;;;;4930474;28;20516;-70
2022/07/30 11:40:23;;;;;;;3.50;1.20;;;;;;;;;;4930087;28;20038;-70
2022/07/30 11:42:49;;;;;;;3.50;1.13;;;;;;;;;;4930700;28;22556;-71
2022/07/30 11:45:14;;;;;;;4.10;1.30;;;;;;;;;;4930373;28;20038;-71
2022/07/30 11:47:44;;;;;;;7.57;1.20;;;;;;;;;;4931770;28;20046;-70
2022/07/30 11:50:18;;;;;;;5.05;1.20;;;;;;;;;;4929829;28;20476;-71
2022/07/30 11:52:53;;;;;;;2.70;1.10;;;;;;;;;;4930394;28;20038;-70
2022/07/30 11:55:29;;;;;;;3.90;1.25;;;;;;;;;;4930286;28;20043;-68
2022/07/30 11:57:55;;;;;;;6.60;1.42;;;;;;;;;;4929901;28;20031;-69
2022/07/30 12:00:21;;;;;;;3.42;1.20;;;;;;;;;;4930803;28;20039;-69
2022/07/30 12:02:49;;;;;;;3.53;1.20;;;;;;;;;;4930389;28;20034;-69
2022/07/30 12:05:23;;;;;;;3.50;1.02;;;;;;;;;;4930342;28;20047;-71
2022/07/30 12:07:48;;;;;;;3.63;1.15;;;;;;;;;;4921864;28;20043;-73
2022/07/30 12:10:18;;;;;;;3.85;1.20;;;;;;;;;;4935467;28;20070;-70
2022/07/30 12:12:45;;;;;;;3.13;1.10;;;;;;;;;;4929933;28;20035;-70
2022/07/30 12:15:26;;;;;;;3.17;1.17;;;;;;;;;;4929623;28;20035;-70
2022/07/30 12:17:52;;;;;;;3.97;1.25;;;;;;;;;;4928979;28;20975;-71
2022/07/30 12:20:20;;;;;;;3.95;1.00;;;;;;;;;;4929855;28;20038;-69
2022/07/30 12:22:50;;;;;;;4.75;1.25;;;;;;;;;;4932287;28;20026;-70
2022/07/30 12:25:16;;;;;;;5.40;1.13;;;;;;;;;;4917899;28;20687;-70
2022/07/30 12:27:44;;;;;;;2.72;1.17;;;;;;;;;;4929768;28;20110;-71
2022/07/30 12:30:10;;;;;;;5.25;1.00;;;;;;;;;;4944197;28;20043;-71
2022/07/30 12:32:37;;;;;;;3.40;1.13;;;;;;;;;;4930174;28;20121;-71
2022/07/30 12:35:03;;;;;;;4.25;1.10;;;;;;;;;;4930336;28;20035;-70
2022/07/30 12:37:33;;;;;;;4.43;0.90;;;;;;;;;;4928762;28;20662;-70
2022/07/30 12:40:12;;;;;;;4.35;1.38;;;;;;;;;;4935268;28;20743;-73
2022/07/30 12:42:48;;;;;;;3.58;1.30;;;;;;;;;;4927720;28;20038;-70
2022/07/30 12:45:32;;;;;;;4.22;1.50;;;;;;;;;;4928366;28;20051;-70
2022/07/30 12:47:57;;;;;;;7.25;1.40;;;;;;;;;;4927183;28;20039;-70
2022/07/30 12:50:24;;;;;;;3.78;1.00;;;;;;;;;;4927154;28;21285;-71
2022/07/30 12:52:52;;;;;;;3.78;1.02;;;;;;;;;;4926989;28;21068;-70
2022/07/30 12:55:28;;;;;;;4.78;1.13;;;;;;;;;;4927828;28;20791;-70
2022/07/30 12:57:56;;;;;;;4.30;1.23;;;;;;;;;;4927799;28;20070;-72
2022/07/30 13:00:22;;;;;;;3.38;1.35;;;;;;;;;;4926727;28;20783;-70
2022/07/30 13:02:50;;;;;;;3.22;1.00;;;;;;;;;;4929884;28;20555;-70
2022/07/30 13:05:15;;;;;;;6.70;1.27;;;;;;;;;;4929923;28;20069;-70
2022/07/30 13:07:56;;;;;;;5.60;1.33;;;;;;;;;;4930851;28;20266;-71
2022/07/30 13:10:21;;;;;;;3.40;1.00;;;;;;;;;;4930704;28;20092;-70
2022/07/30 13:12:49;;;;;;;3.70;1.20;;;;;;;;;;4930926;28;20120;-70
2022/07/30 13:15:18;;;;;;;2.25;1.00;;;;;;;;;;4935860;28;20035;-72
2022/07/30 13:17:43;;;;;;;2.35;1.10;;;;;;;;;;4944094;28;20077;-70
2022/07/30 13:20:09;;;;;;;4.63;1.20;;;;;;;;;;4931530;28;20031;-71
2022/07/30 13:22:34;;;;;;;4.28;1.40;;;;;;;;;;4929992;28;20224;-72
2022/07/30 13:24:59;;;;;;;6.45;1.40;;;;;;;;;;4931461;28;20472;-71
2022/07/30 13:27:27;;;;;;;2.88;1.20;;;;;;;;;;4929128;28;20114;-74
2022/07/30 13:29:53;;;;;;;3.92;1.40;;;;;;;;;;4930583;28;20042;-69
2022/07/30 13:32:18;;;;;;;4.30;1.30;;;;;;;;;;4930784;28;20376;-70
2022/07/30 13:34:44;;;;;;;4.35;1.17;;;;;;;;;;4918755;28;20038;-68
2022/07/30 13:37:09;;;;;;;2.53;1.10;;;;;;;;;;4931827;28;20561;-68
2022/07/30 13:39:35;;;;;;;4.63;1.48;;;;;;;;;;4930456;28;20035;-69
2022/07/30 13:42:00;;;;;;;4.28;1.30;;;;;;;;;;4927982;28;20104;-68
2022/07/30 13:44:26;;;;;;;5.68;1.30;;;;;;;;;;4930086;28;20053;-70
2022/07/30 13:46:51;;;;;;;3.25;1.10;;;;;;;;;;4930927;28;20159;-69
2022/07/30 13:49:16;;;;;;;4.50;1.25;;;;;;;;;;4931247;28;20047;-69
2022/07/30 13:51:41;;;;;;;6.32;1.30;;;;;;;;;;4936444;28;20047;-71
2022/07/30 13:54:07;;;;;;;3.95;1.40;;;;;;;;;;4930045;28;20038;-69
2022/07/30 13:56:33;;;;;;;3.40;1.33;;;;;;;;;;4930582;28;20065;-70
2022/07/30 13:58:59;;;;;;;2.60;1.42;;;;;;;;;;4929191;28;20034;-72
2022/07/30 14:01:24;;;;;;;3.90;1.40;;;;;;;;;;4935400;28;20039;-72
2022/07/30 14:03:50;;;;;;;2.35;1.20;;;;;;;;;;4929839;28;20105;-72
2022/07/30 14:06:18;;;;;;;5.82;1.38;;;;;;;;;;4929964;28;20039;-70
2022/07/30 14:08:44;;;;;;;4.32;1.25;;;;;;;;;;4930920;28;21302;-70
2022/07/30 14:11:09;;;;;;;1.77;0.95;;;;;;;;;;4931471;28;20035;-70
2022/07/30 14:13:40;;;;;;;3.88;1.23;;;;;;;;;;4929480;28;20035;-71
2022/07/30 14:16:05;;;;;;;4.15;1.30;;;;;;;;;;4931181;28;20080;-70
2022/07/30 14:18:30;;;;;;;5.13;1.10;;;;;;;;;;4930118;28;20725;-68
2022/07/30 14:20:56;;;;;;;6.45;1.20;;;;;;;;;;4930269;28;20046;-69
2022/07/30 14:23:21;;;;;;;5.47;1.35;;;;;;;;;;4930329;28;20074;-68
2022/07/30 14:25:47;;;;;;;4.93;1.42;;;;;;;;;;4929196;28;20752;-69
2022/07/30 14:28:12;;;;;;;5.28;1.20;;;;;;;;;;4929794;28;20125;-66
2022/07/30 14:30:40;;;;;;;3.38;1.02;;;;;;;;;;4921188;28;20030;-68
2022/07/30 14:33:07;;;;;;;5.07;1.20;;;;;;;;;;4929967;28;20933;-68
2022/07/30 14:35:32;;;;;;;3.50;1.38;;;;;;;;;;4929729;28;20030;-69
2022/07/30 14:38:01;;;;;;;4.80;1.77;;;;;;;;;;4943275;28;20027;-68
2022/07/30 14:40:29;;;;;;;4.55;1.30;;;;;;;;;;4931048;28;20231;-70